createdAt,value
2018-05-18T00:01:13.965Z,20.80
2018-05-18T00:03:49.481Z,20.70
2018-05-18T00:06:24.829Z,20.70
2018-05-18T00:09:00.739Z,20.80
2018-05-18T00:11:36.460Z,20.80
2018-05-18T00:14:11.775Z,20.70
2018-05-18T00:16:48.128Z,20.60
2018-05-18T00:19:23.533Z,20.60
2018-05-18T00:21:59.268Z,20.60
2018-05-18T00:24:35.532Z,20.50
2018-05-18T00:27:11.828Z,20.40
2018-05-18T00:29:47.934Z,20.40
2018-05-18T00:32:23.563Z,20.40
2018-05-18T00:34:59.106Z,20.30
2018-05-18T00:37:34.158Z,20.40
2018-05-18T00:40:10.288Z,20.40
2018-05-18T00:42:46.674Z,20.50
2018-05-18T00:45:21.713Z,20.50
2018-05-18T00:47:56.740Z,20.50
2018-05-18T00:50:32.818Z,20.40
2018-05-18T00:53:08.447Z,20.40
2018-05-18T00:55:44.247Z,20.40
2018-05-18T00:58:20.671Z,20.50
2018-05-18T01:00:56.787Z,20.50
2018-05-18T01:03:33.475Z,20.50
2018-05-18T01:06:09.604Z,20.40
2018-05-18T01:08:45.458Z,20.40
2018-05-18T01:11:20.352Z,20.40
2018-05-18T01:13:56.063Z,20.60
2018-05-18T01:16:32.471Z,20.40
2018-05-18T01:19:08.426Z,20.40
2018-05-18T01:21:44.913Z,20.30
2018-05-18T01:24:20.341Z,20.30
2018-05-18T01:26:57.220Z,20.20
2018-05-18T01:29:32.047Z,20.10
2018-05-18T01:32:07.371Z,20.20
2018-05-18T01:34:44.066Z,20.10
2018-05-18T01:37:20.128Z,20.10
2018-05-18T01:39:55.105Z,20.10
2018-05-18T01:42:30.298Z,20.20
2018-05-18T01:45:05.843Z,20.20
2018-05-18T01:47:43.950Z,20.30
2018-05-18T01:50:18.922Z,20.30
2018-05-18T01:52:53.820Z,20.30
2018-05-18T01:55:29.507Z,20.40
2018-05-18T01:58:05.227Z,20.20
2018-05-18T02:00:41.691Z,20.30
2018-05-18T02:03:16.926Z,20.20
2018-05-18T02:05:51.857Z,20.10
2018-05-18T02:08:27.916Z,20.00
2018-05-18T02:11:03.099Z,20.00
2018-05-18T02:13:39.124Z,19.90
2018-05-18T02:16:14.150Z,19.80
2018-05-18T02:18:50.618Z,19.60
2018-05-18T02:21:25.655Z,19.60
2018-05-18T02:24:01.918Z,19.50
2018-05-18T02:26:37.463Z,19.50
2018-05-18T02:29:13.854Z,19.40
2018-05-18T02:31:48.880Z,19.40
2018-05-18T02:34:24.105Z,19.30
2018-05-18T02:36:58.938Z,19.20
2018-05-18T02:39:34.589Z,19.30
2018-05-18T02:42:09.825Z,19.20
2018-05-18T02:44:44.664Z,19.20
2018-05-18T02:47:19.496Z,19.10
2018-05-18T02:49:54.520Z,19.10
2018-05-18T02:52:29.482Z,19.10
2018-05-18T02:55:05.502Z,19.10
2018-05-18T02:57:41.267Z,19.10
2018-05-18T03:00:16.107Z,19.10
2018-05-18T03:02:54.479Z,19.20
2018-05-18T03:05:30.024Z,19.20
2018-05-18T03:08:04.890Z,19.10
2018-05-18T03:10:41.153Z,19.10
2018-05-18T03:13:18.244Z,19.10
2018-05-18T03:15:54.503Z,19.00
2018-05-18T03:18:29.539Z,18.90
2018-05-18T03:21:05.269Z,19.20
2018-05-18T03:23:40.426Z,19.20
2018-05-18T03:26:15.875Z,19.10
2018-05-18T03:28:50.901Z,19.10
2018-05-18T03:31:27.302Z,18.90
2018-05-18T03:34:02.407Z,18.90
2018-05-18T03:36:38.673Z,18.90
2018-05-18T03:39:13.910Z,18.90
2018-05-18T03:41:49.356Z,18.80
2018-05-18T03:44:25.007Z,18.80
2018-05-18T03:46:59.779Z,18.70
2018-05-18T03:49:35.487Z,18.80
2018-05-18T03:52:12.361Z,18.70
2018-05-18T03:54:47.604Z,18.70
2018-05-18T03:57:23.664Z,18.70
2018-05-18T03:59:58.902Z,18.70
2018-05-18T04:02:45.615Z,18.70
2018-05-18T04:05:32.737Z,18.60
2018-05-18T04:08:16.366Z,18.60
2018-05-18T04:10:53.229Z,18.70
2018-05-18T04:13:28.894Z,18.70
2018-05-18T04:16:03.722Z,18.70
2018-05-18T04:18:39.577Z,18.60
2018-05-18T04:21:15.228Z,18.60
2018-05-18T04:23:50.781Z,18.60
2018-05-18T04:26:26.939Z,18.60
2018-05-18T04:29:01.766Z,18.60
2018-05-18T04:31:38.236Z,18.60
2018-05-18T04:34:13.273Z,18.60
2018-05-18T04:36:49.138Z,18.60
2018-05-18T04:39:25.593Z,18.50
2018-05-18T04:42:02.061Z,18.50
2018-05-18T04:44:37.711Z,18.50
2018-05-18T04:47:13.361Z,18.50
2018-05-18T04:49:48.807Z,18.60
2018-05-18T04:52:25.176Z,18.60
2018-05-18T04:55:01.644Z,18.60
2018-05-18T04:57:38.009Z,18.60
2018-05-18T05:00:12.981Z,18.60
2018-05-18T05:02:48.695Z,18.60
2018-05-18T05:05:24.305Z,18.50
2018-05-18T05:08:00.708Z,18.60
2018-05-18T05:10:35.544Z,18.60
2018-05-18T05:13:11.598Z,18.70
2018-05-18T05:15:46.588Z,18.70
2018-05-18T05:18:21.463Z,18.70
2018-05-18T05:20:59.570Z,18.70
2018-05-18T05:23:35.050Z,18.70
2018-05-18T05:26:10.667Z,18.70
2018-05-18T05:28:45.726Z,18.80
2018-05-18T05:31:21.359Z,18.80
2018-05-18T05:33:57.409Z,18.90
2018-05-18T05:36:33.901Z,19.00
2018-05-18T05:39:10.348Z,19.10
2018-05-18T05:41:46.404Z,19.10
2018-05-18T05:44:21.651Z,19.10
2018-05-18T05:46:57.321Z,19.20
2018-05-18T05:49:34.186Z,19.20
2018-05-18T05:52:09.207Z,19.10
2018-05-18T05:54:44.248Z,19.10
2018-05-18T05:57:20.674Z,19.30
2018-05-18T05:59:57.797Z,19.40
2018-05-18T06:02:33.245Z,19.30
2018-05-18T06:05:08.540Z,19.50
2018-05-18T06:07:44.336Z,19.60
2018-05-18T06:10:20.192Z,19.70
2018-05-18T06:12:54.890Z,19.70
2018-05-18T06:15:30.156Z,19.70
2018-05-18T06:18:06.934Z,19.80
2018-05-18T06:20:41.969Z,19.80
2018-05-18T06:23:17.616Z,19.90
2018-05-18T06:26:00.506Z,20.00
2018-05-18T06:28:35.678Z,20.00
2018-05-18T06:31:10.709Z,20.10
2018-05-18T06:33:46.564Z,20.10
2018-05-18T06:36:22.428Z,20.10
2018-05-18T06:38:58.285Z,20.10
2018-05-18T06:41:34.023Z,20.10
2018-05-18T06:44:10.500Z,20.40
2018-05-18T06:46:47.031Z,20.60
2018-05-18T06:49:22.917Z,20.60
2018-05-18T06:51:57.905Z,20.60
2018-05-18T06:54:33.397Z,20.50
2018-05-18T06:57:09.661Z,20.80
2018-05-18T06:59:45.147Z,20.80
2018-05-18T07:02:21.105Z,20.90
2018-05-18T07:04:56.713Z,21.00
2018-05-18T07:07:31.856Z,21.00
2018-05-18T07:10:07.556Z,21.10
2018-05-18T07:12:43.250Z,21.10
2018-05-18T07:15:18.090Z,21.30
2018-05-18T07:17:52.935Z,21.30
2018-05-18T07:20:28.358Z,21.30
2018-05-18T07:23:03.241Z,21.50
2018-05-18T07:25:40.579Z,23.30
2018-05-18T07:28:16.431Z,23.80
2018-05-18T07:30:55.158Z,23.80
2018-05-18T07:33:30.202Z,24.40
2018-05-18T07:36:05.271Z,25.40
2018-05-18T07:38:40.871Z,25.70
2018-05-18T07:41:16.449Z,26.00
2018-05-18T07:43:51.261Z,26.10
2018-05-18T07:46:26.293Z,26.50
2018-05-18T07:49:01.718Z,26.70
2018-05-18T07:51:37.485Z,26.70
2018-05-18T07:54:13.132Z,27.30
2018-05-18T07:56:48.483Z,27.20
2018-05-18T07:59:23.970Z,27.20
2018-05-18T08:02:00.286Z,27.70
2018-05-18T08:04:35.497Z,28.10
2018-05-18T08:07:11.282Z,27.50
2018-05-18T08:09:46.501Z,27.50
2018-05-18T08:12:22.891Z,28.00
2018-05-18T08:14:59.258Z,28.00
2018-05-18T08:17:34.697Z,28.20
2018-05-18T08:20:09.629Z,28.10
2018-05-18T08:22:46.205Z,27.70
2018-05-18T08:25:21.031Z,27.30
2018-05-18T08:27:56.988Z,27.30
2018-05-18T08:30:44.414Z,27.40
2018-05-18T08:33:19.654Z,27.50
2018-05-18T08:35:54.688Z,28.00
2018-05-18T08:38:29.521Z,28.00
2018-05-18T08:41:05.393Z,27.40
2018-05-18T08:43:41.021Z,27.20
2018-05-18T08:46:15.851Z,27.70
2018-05-18T08:48:50.845Z,27.80
2018-05-18T08:51:26.335Z,28.40
2018-05-18T08:54:02.707Z,28.40
2018-05-18T08:56:37.682Z,28.40
2018-05-18T08:59:14.100Z,27.90
2018-05-18T09:01:49.243Z,27.90
2018-05-18T09:04:24.891Z,28.30
2018-05-18T09:06:59.823Z,28.30
2018-05-18T09:09:35.831Z,28.70
2018-05-18T09:12:11.125Z,28.60
2018-05-18T09:14:46.768Z,28.40
2018-05-18T09:17:23.034Z,28.30
2018-05-18T09:19:59.708Z,28.50
2018-05-18T09:22:34.541Z,28.80
2018-05-18T09:25:09.370Z,28.80
2018-05-18T09:27:47.064Z,29.50
2018-05-18T09:30:21.907Z,29.50
2018-05-18T09:32:59.391Z,29.20
2018-05-18T09:35:34.528Z,27.80
2018-05-18T09:38:10.993Z,26.60
2018-05-18T09:40:45.826Z,26.30
2018-05-18T09:43:22.291Z,26.30
2018-05-18T09:45:58.760Z,27.40
2018-05-18T09:48:33.736Z,27.40
2018-05-18T09:51:08.630Z,27.60
2018-05-18T09:53:44.484Z,27.50
2018-05-18T09:56:20.070Z,27.60
2018-05-18T09:58:54.960Z,27.60
2018-05-18T10:01:30.003Z,27.10
2018-05-18T10:04:05.650Z,26.90
2018-05-18T10:06:40.415Z,26.90
2018-05-18T10:09:16.124Z,27.20
2018-05-18T10:11:51.789Z,27.80
2018-05-18T10:14:27.424Z,27.90
2018-05-18T10:17:03.278Z,27.60
2018-05-18T10:19:39.751Z,27.70
2018-05-18T10:22:14.993Z,27.70
2018-05-18T10:24:51.866Z,27.90
2018-05-18T10:27:29.375Z,27.40
2018-05-18T10:30:05.064Z,27.20
2018-05-18T10:32:41.453Z,27.70
2018-05-18T10:35:17.023Z,28.50
2018-05-18T10:37:53.232Z,28.00
2018-05-18T10:40:28.122Z,27.70
2018-05-18T10:43:03.766Z,27.60
2018-05-18T10:45:39.630Z,27.90
2018-05-18T10:48:15.271Z,27.70
2018-05-18T10:50:50.100Z,27.80
2018-05-18T10:53:25.136Z,27.10
2018-05-18T10:56:00.788Z,27.60
2018-05-18T10:58:36.445Z,28.20
2018-05-18T11:01:11.197Z,28.60
2018-05-18T11:03:46.866Z,28.70
2018-05-18T11:06:22.568Z,29.20
2018-05-18T11:08:58.315Z,28.60
2018-05-18T11:11:33.352Z,27.70
2018-05-18T11:14:08.872Z,27.50
2018-05-18T11:16:45.475Z,28.00
2018-05-18T11:19:20.608Z,27.90
2018-05-18T11:21:55.541Z,28.00
2018-05-18T11:24:32.011Z,27.70
2018-05-18T11:27:08.894Z,27.90
2018-05-18T11:29:44.539Z,27.60
2018-05-18T11:32:20.396Z,28.70
2018-05-18T11:34:55.835Z,29.60
2018-05-18T11:37:30.668Z,30.20
2018-05-18T11:40:06.519Z,29.10
2018-05-18T11:42:42.077Z,28.90
2018-05-18T11:45:17.205Z,28.10
2018-05-18T11:47:53.004Z,27.80
2018-05-18T11:50:28.618Z,27.70
2018-05-18T11:53:06.306Z,28.10
2018-05-18T11:55:42.159Z,28.60
2018-05-18T11:58:18.028Z,27.80
2018-05-18T12:00:53.631Z,27.80
2018-05-18T12:03:29.416Z,26.80
2018-05-18T12:06:08.856Z,25.80
2018-05-18T12:08:44.063Z,25.80
2018-05-18T12:11:26.596Z,25.80
2018-05-18T12:14:01.499Z,26.00
2018-05-18T12:16:38.927Z,25.90
2018-05-18T12:19:13.858Z,25.90
2018-05-18T12:21:50.743Z,26.00
2018-05-18T12:24:28.549Z,25.90
2018-05-18T12:27:04.748Z,26.60
2018-05-18T12:29:40.147Z,27.10
2018-05-18T12:32:15.752Z,27.60
2018-05-18T12:34:52.449Z,27.40
2018-05-18T12:37:27.969Z,26.50
2018-05-18T12:40:03.662Z,25.40
2018-05-18T12:42:40.346Z,24.80
2018-05-18T12:45:18.040Z,23.80
2018-05-18T12:47:52.867Z,23.80
2018-05-18T12:50:27.902Z,23.50
2018-05-18T12:53:03.556Z,23.00
2018-05-18T12:55:38.586Z,22.70
2018-05-18T12:58:14.043Z,23.00
2018-05-18T13:00:49.890Z,23.20
2018-05-18T13:03:24.721Z,22.90
2018-05-18T13:06:00.365Z,23.00
2018-05-18T13:08:37.241Z,22.90
2018-05-18T13:11:13.722Z,22.70
2018-05-18T13:13:49.564Z,22.50
2018-05-18T13:16:25.632Z,22.50
2018-05-18T13:19:01.280Z,22.70
2018-05-18T13:21:36.580Z,22.60
2018-05-18T13:24:12.269Z,22.60
2018-05-18T13:26:47.925Z,23.20
2018-05-18T13:29:22.762Z,23.30
2018-05-18T13:31:58.607Z,23.20
2018-05-18T13:34:33.637Z,22.90
2018-05-18T13:37:09.496Z,22.80
2018-05-18T13:39:45.141Z,22.90
2018-05-18T13:42:20.306Z,22.70
2018-05-18T13:44:56.624Z,22.50
2018-05-18T13:47:32.399Z,22.50
2018-05-18T13:50:07.430Z,21.90
2018-05-18T13:52:43.079Z,22.20
2018-05-18T13:55:18.115Z,22.20
2018-05-18T13:57:53.765Z,22.50
2018-05-18T14:00:28.803Z,22.50
2018-05-18T14:03:04.455Z,22.50
2018-05-18T14:05:39.487Z,22.30
2018-05-18T14:08:15.135Z,22.10
2018-05-18T14:10:50.403Z,22.00
2018-05-18T14:13:25.716Z,22.10
2018-05-18T14:16:01.367Z,22.10
2018-05-18T14:18:36.693Z,22.20
2018-05-18T14:21:12.872Z,22.10
2018-05-18T14:23:48.115Z,22.30
2018-05-18T14:26:23.027Z,22.20
2018-05-18T14:28:59.005Z,22.20
2018-05-18T14:31:33.729Z,22.20
2018-05-18T14:34:09.583Z,22.30
2018-05-18T14:36:44.248Z,22.30
2018-05-18T14:39:19.053Z,22.10
2018-05-18T14:41:54.593Z,22.20
2018-05-18T14:44:30.739Z,22.30
2018-05-18T14:47:07.093Z,22.30
2018-05-18T14:49:43.793Z,22.20
2018-05-18T14:52:19.639Z,22.50
2018-05-18T14:54:56.119Z,22.20
2018-05-18T14:57:32.789Z,22.20
2018-05-18T15:00:07.818Z,22.30
2018-05-18T15:02:43.737Z,22.40
2018-05-18T15:05:19.742Z,22.20
2018-05-18T15:07:56.205Z,22.20
2018-05-18T15:10:33.239Z,22.20
2018-05-18T15:13:09.549Z,22.10
2018-05-18T15:15:46.296Z,21.90
2018-05-18T15:18:22.901Z,21.90
2018-05-18T15:20:59.165Z,22.00
2018-05-18T15:23:34.616Z,22.00
2018-05-18T15:26:12.814Z,22.00
2018-05-18T15:28:51.073Z,22.10
2018-05-18T15:31:27.153Z,22.10
2018-05-18T15:34:03.337Z,22.30
2018-05-18T15:36:41.685Z,22.10
2018-05-18T15:39:18.230Z,22.00
2018-05-18T15:41:54.237Z,21.80
2018-05-18T15:44:29.849Z,21.70
2018-05-18T15:47:06.510Z,21.40
2018-05-18T15:49:42.684Z,21.40
2018-05-18T15:52:17.919Z,21.50
2018-05-18T15:54:52.946Z,21.30
2018-05-18T15:57:30.742Z,21.70
2018-05-18T16:00:06.813Z,21.70
2018-05-18T16:02:42.880Z,21.70
2018-05-18T16:05:19.264Z,21.70
2018-05-18T16:07:55.708Z,21.70
2018-05-18T16:10:31.787Z,21.90
2018-05-18T16:13:07.602Z,21.90
2018-05-18T16:15:44.148Z,21.90
2018-05-18T16:18:20.763Z,22.10
2018-05-18T16:20:58.472Z,22.00
2018-05-18T16:23:34.086Z,21.80
2018-05-18T16:26:12.980Z,21.60
2018-05-18T16:28:49.739Z,21.50
2018-05-18T16:31:27.608Z,21.40
2018-05-18T16:34:03.538Z,21.60
2018-05-18T16:36:39.769Z,21.40
2018-05-18T16:39:15.782Z,21.40
2018-05-18T16:41:52.525Z,21.30
2018-05-18T16:44:28.515Z,21.10
2018-05-18T16:47:05.345Z,21.20
2018-05-18T16:49:41.567Z,21.10
2018-05-18T16:52:18.958Z,21.30
2018-05-18T16:54:58.464Z,21.00
2018-05-18T16:57:55.422Z,21.00
2018-05-18T17:00:30.706Z,20.80
2018-05-18T17:03:07.638Z,20.80
2018-05-18T17:05:44.043Z,20.80
2018-05-18T17:08:20.326Z,20.80
2018-05-18T17:10:57.027Z,20.80
2018-05-18T17:13:34.501Z,20.80
2018-05-18T17:16:11.758Z,20.80
2018-05-18T17:18:46.980Z,20.80
2018-05-18T17:21:22.939Z,20.90
2018-05-18T17:23:59.405Z,20.90
2018-05-18T17:26:34.442Z,20.80
2018-05-18T17:29:09.832Z,20.70
2018-05-18T17:31:44.714Z,20.70
2018-05-18T17:34:20.371Z,20.60
2018-05-18T17:36:57.182Z,20.60
2018-05-18T17:39:33.100Z,20.50
2018-05-18T17:42:08.548Z,20.50
2018-05-18T17:44:44.194Z,20.60
2018-05-18T17:47:19.700Z,20.50
2018-05-18T17:49:56.720Z,20.70
2018-05-18T17:52:31.777Z,20.70
2018-05-18T17:55:09.057Z,20.50
2018-05-18T18:00:48.891Z,20.60
2018-05-18T18:03:24.869Z,20.60
2018-05-18T18:06:00.743Z,20.60
2018-05-18T18:08:36.315Z,20.80
2018-05-18T18:11:11.819Z,20.70
2018-05-18T18:13:47.679Z,20.70
2018-05-18T18:16:22.427Z,20.60
2018-05-18T18:18:57.951Z,20.70
2018-05-18T18:21:34.211Z,20.60
2018-05-18T18:24:10.112Z,20.70
2018-05-18T18:26:47.352Z,20.70
2018-05-18T18:29:22.613Z,20.80
2018-05-18T18:31:57.464Z,20.70
2018-05-18T18:34:32.402Z,20.70
2018-05-18T18:37:09.340Z,20.80
2018-05-18T18:39:44.902Z,20.80
2018-05-18T18:42:20.497Z,20.80
2018-05-18T18:44:55.881Z,20.80
2018-05-18T18:47:31.225Z,20.70
2018-05-18T18:50:06.357Z,20.70
2018-05-18T18:52:42.003Z,20.70
2018-05-18T18:55:17.347Z,20.80
2018-05-18T18:57:55.044Z,20.90
2018-05-18T19:00:30.592Z,20.90
2018-05-18T19:03:06.856Z,20.80
2018-05-18T19:05:42.382Z,20.70
2018-05-18T19:08:17.948Z,20.80
2018-05-18T19:10:54.269Z,20.80
2018-05-18T19:13:29.250Z,20.70
2018-05-18T19:16:04.589Z,20.80
2018-05-18T19:18:40.256Z,20.70
2018-05-18T19:21:16.506Z,20.70
2018-05-18T19:23:51.951Z,20.60
2018-05-18T19:26:26.776Z,20.60
2018-05-18T19:29:01.812Z,20.50
2018-05-18T19:31:37.461Z,20.50
2018-05-18T19:34:13.054Z,20.20
2018-05-18T19:36:48.356Z,20.20
2018-05-18T19:39:23.388Z,20.20
2018-05-18T19:42:02.315Z,20.20
2018-05-18T19:44:38.788Z,20.40
2018-05-18T19:47:14.023Z,20.40
2018-05-18T19:49:49.639Z,20.40
2018-05-18T19:52:25.222Z,20.40
2018-05-18T19:55:00.530Z,20.40
2018-05-18T19:57:36.635Z,20.20
2018-05-18T20:00:12.825Z,20.30
2018-05-18T20:02:55.818Z,20.20
2018-05-18T20:05:31.766Z,20.10
2018-05-18T20:08:06.974Z,20.10
2018-05-18T20:10:42.554Z,20.00
2018-05-18T20:13:18.355Z,20.00
2018-05-18T20:15:53.848Z,20.20
2018-05-18T20:18:28.883Z,20.20
2018-05-18T20:21:04.640Z,20.30
2018-05-18T20:23:39.683Z,20.30
2018-05-18T20:26:14.643Z,20.20
2018-05-18T20:28:51.583Z,20.10
2018-05-18T20:31:27.643Z,20.10
2018-05-18T20:34:03.495Z,20.10
2018-05-18T20:36:38.942Z,20.00
2018-05-18T20:39:14.027Z,20.00
2018-05-18T20:41:49.727Z,20.00
2018-05-18T20:44:25.582Z,20.10
2018-05-18T20:47:01.606Z,20.00
2018-05-18T20:49:37.396Z,20.10
2018-05-18T20:52:13.659Z,20.00
2018-05-18T20:54:48.452Z,20.00
2018-05-18T20:57:23.322Z,20.00
2018-05-18T20:59:58.620Z,20.00
2018-05-18T21:02:34.207Z,20.00
2018-05-18T21:05:09.818Z,20.00
2018-05-18T21:07:44.831Z,20.00
2018-05-18T21:10:19.946Z,20.00
2018-05-18T21:12:55.590Z,20.00
2018-05-18T21:15:30.968Z,20.00
2018-05-18T21:18:06.064Z,20.00
2018-05-18T21:20:41.040Z,20.00
2018-05-18T21:23:15.927Z,20.00
2018-05-18T21:25:51.546Z,19.90
2018-05-18T21:28:26.817Z,20.00
2018-05-18T21:31:03.079Z,20.00
2018-05-18T21:33:38.289Z,20.00
2018-05-18T21:36:13.815Z,20.00
2018-05-18T21:38:49.622Z,20.00
2018-05-18T21:41:24.862Z,20.00
2018-05-18T21:44:00.306Z,20.00
2018-05-18T21:46:36.388Z,19.90
2018-05-18T21:49:12.316Z,19.80
2018-05-18T21:51:47.146Z,19.80
2018-05-18T21:54:22.079Z,19.80
2018-05-18T21:56:58.962Z,19.80
2018-05-18T21:59:35.306Z,19.80
2018-05-18T22:02:10.828Z,19.80
2018-05-18T22:04:46.454Z,19.70
2018-05-18T22:07:22.785Z,19.80
2018-05-18T22:09:58.025Z,19.70
2018-05-18T22:12:33.062Z,19.70
2018-05-18T22:15:08.320Z,19.70
2018-05-18T22:17:43.336Z,19.70
2018-05-18T22:20:18.369Z,19.70
2018-05-18T22:22:56.066Z,19.70
2018-05-18T22:25:31.613Z,19.80
2018-05-18T22:28:07.276Z,19.80
2018-05-18T22:30:42.717Z,20.00
2018-05-18T22:33:18.358Z,20.00
2018-05-18T22:35:56.330Z,20.00
2018-05-18T22:38:32.727Z,20.00
2018-05-18T22:41:08.976Z,19.90
2018-05-18T22:43:45.525Z,19.90
2018-05-18T22:46:22.010Z,19.90
2018-05-18T22:48:57.379Z,19.90
2018-05-18T22:51:32.406Z,19.90
2018-05-18T22:54:07.346Z,19.80
2018-05-18T22:56:42.751Z,19.80
2018-05-18T22:59:17.823Z,19.80
2018-05-18T23:01:53.576Z,19.80
2018-05-18T23:04:28.813Z,19.80
2018-05-18T23:07:03.853Z,19.70
2018-05-18T23:09:38.630Z,19.60
2018-05-18T23:12:13.930Z,19.60
2018-05-18T23:14:49.773Z,19.60
2018-05-18T23:17:24.617Z,19.60
2018-05-18T23:20:00.662Z,19.70
2018-05-18T23:22:36.005Z,19.60
2018-05-18T23:25:11.052Z,19.60
2018-05-18T23:27:45.870Z,19.60
2018-05-18T23:30:21.101Z,19.50
2018-05-18T23:32:56.493Z,19.50
2018-05-18T23:35:31.795Z,19.50
2018-05-18T23:38:06.703Z,19.50
2018-05-18T23:40:42.277Z,19.50
2018-05-18T23:43:17.317Z,19.50
2018-05-18T23:45:53.987Z,19.50
2018-05-18T23:48:29.951Z,19.50
2018-05-18T23:51:05.622Z,19.50
2018-05-18T23:53:41.663Z,19.20
2018-05-18T23:56:16.689Z,19.20
2018-05-18T23:58:52.236Z,19.30
